KCKN/CKN METAR and TAF weather

Enter ICAO airport designator
Station Type Date Time Source
KCKN METAR 2019/06/17 05:45 UTC NOAA

KCKN 170545Z AUTO 26006KT 10SM SCT010 BKN050 OVC075 14/13 A2988 RMK AO2


Station Type Date Time Source
KCKN Decoded METAR 2019/06/17 05:45 UTC NOAA

Crookston Municipal Field, MN, United States (KCKN) 47-51N 096-37W
Jun 17, 2019 - 01:45 AM EDT / 2019.06.17 0545 UTC
Wind: from the W (260 degrees) at 7 MPH (6 KT):0
Visibility: 10 mile(s):0
Sky conditions: overcast
Temperature: 57 F (14 C)
Dew Point: 55 F (13 C)
Relative Humidity: 93%
Pressure (altimeter): 29.88 in. Hg (1011 hPa)
ob: KCKN 170545Z AUTO 26006KT 10SM SCT010 BKN050 OVC075 14/13 A2988 RMK AO2
cycle: 6

Station Type Date Time Source
KCKN TAF UTC NOAA

Error!

Example: see airport list